Apiacas, Brazil
Current Conditions -  °F | °C
As of 6:00 PM on Friday 24 Oct 2014 (Local Time) from SBAT Reporting Station
Thunderstorm Thunderstorm  
Wind Chill: 81°   Ceiling: Unl
Heat Index: 84°   Visibility: 6mi
Dew Point: 70°   Wind: 3mph
Humidity: 70%   Direction: 60°ENE
Pressure: 29.77"   Gusts: NA
Location:  9.56°S, 57.35°W
Report Text: SBAT 242100Z 06003KT 9999 TS SCT030CB SCT100 27/21 Q1008
Loading
Personal Weather Stations






























Interactive Weather Map
Tropical Storm Tracking
New forecast layout! Learn more

10-Day Weather Forecast

Advertisements
Track Severe Weather on mobile